sensor_id;sensor_type;location;lat;lon;timestamp;P1;durP1;ratioP1;P2;durP2;ratioP2
65665;SDS011;52365;47.464;18.976;2023-09-18T00:00:03;8.85;;;5.22;;
65665;SDS011;52365;47.464;18.976;2023-09-18T00:00:33;9.43;;;5.80;;
65665;SDS011;52365;47.464;18.976;2023-09-18T00:00:55;6.85;;;5.37;;
65665;SDS011;52365;47.464;18.976;2023-09-18T00:01:18;7.50;;;5.60;;
65665;SDS011;52365;47.464;18.976;2023-09-18T00:01:40;8.70;;;5.40;;
65665;SDS011;52365;47.464;18.976;2023-09-18T00:02:01;8.38;;;5.12;;
65665;SDS011;52365;47.464;18.976;2023-09-18T00:02:22;9.07;;;5.72;;
65665;SDS011;52365;47.464;18.976;2023-09-18T00:02:43;6.95;;;5.30;;
65665;SDS011;52365;47.464;18.976;2023-09-18T00:03:04;7.22;;;5.30;;
65665;SDS011;52365;47.464;18.976;2023-09-18T00:03:25;8.02;;;5.47;;
65665;SDS011;52365;47.464;18.976;2023-09-18T00:03:46;7.55;;;5.28;;
65665;SDS011;52365;47.464;18.976;2023-09-18T00:04:02;7.50;;;5.32;;
65665;SDS011;52365;47.464;18.976;2023-09-18T00:04:23;6.87;;;5.50;;
65665;SDS011;52365;47.464;18.976;2023-09-18T00:04:44;6.80;;;5.37;;
65665;SDS011;52365;47.464;18.976;2023-09-18T00:05:00;7.60;;;5.40;;
65665;SDS011;52365;47.464;18.976;2023-09-18T00:05:21;6.80;;;5.15;;
65665;SDS011;52365;47.464;18.976;2023-09-18T00:05:43;6.53;;;5.00;;
65665;SDS011;52365;47.464;18.976;2023-09-18T00:06:04;7.22;;;5.22;;
65665;SDS011;52365;47.464;18.976;2023-09-18T00:06:20;7.03;;;5.45;;
65665;SDS011;52365;47.464;18.976;2023-09-18T00:06:44;6.57;;;5.03;;
65665;SDS011;52365;47.464;18.976;2023-09-18T00:07:05;6.95;;;5.10;;
65665;SDS011;52365;47.464;18.976;2023-09-18T00:07:21;8.13;;;5.30;;
65665;SDS011;52365;47.464;18.976;2023-09-18T00:07:42;9.23;;;5.50;;
65665;SDS011;52365;47.464;18.976;2023-09-18T00:08:04;9.27;;;5.60;;
65665;SDS011;52365;47.464;18.976;2023-09-18T00:08:25;8.63;;;5.45;;
65665;SDS011;52365;47.464;18.976;2023-09-18T00:08:46;6.10;;;5.35;;
65665;SDS011;52365;47.464;18.976;2023-09-18T00:09:08;5.97;;;5.18;;
65665;SDS011;52365;47.464;18.976;2023-09-18T00:09:32;7.47;;;5.18;;
65665;SDS011;52365;47.464;18.976;2023-09-18T00:09:53;9.70;;;5.12;;
65665;SDS011;52365;47.464;18.976;2023-09-18T00:10:14;9.65;;;5.60;;
65665;SDS011;52365;47.464;18.976;2023-09-18T00:10:35;7.35;;;5.28;;
65665;SDS011;52365;47.464;18.976;2023-09-18T00:10:56;7.25;;;5.20;;
65665;SDS011;52365;47.464;18.976;2023-09-18T00:11:17;6.57;;;5.20;;
65665;SDS011;52365;47.464;18.976;2023-09-18T00:11:39;7.40;;;5.40;;
65665;SDS011;52365;47.464;18.976;2023-09-18T00:12:00;7.32;;;5.43;;
65665;SDS011;52365;47.464;18.976;2023-09-18T00:12:21;7.78;;;5.35;;
65665;SDS011;52365;47.464;18.976;2023-09-18T00:12:42;5.93;;;5.15;;
65665;SDS011;52365;47.464;18.976;2023-09-18T00:12:58;7.05;;;4.97;;
65665;SDS011;52365;47.464;18.976;2023-09-18T00:13:19;8.70;;;5.28;;
65665;SDS011;52365;47.464;18.976;2023-09-18T00:13:41;8.43;;;5.40;;
65665;SDS011;52365;47.464;18.976;2023-09-18T00:14:02;8.73;;;5.50;;
65665;SDS011;52365;47.464;18.976;2023-09-18T00:14:24;7.12;;;5.60;;
65665;SDS011;52365;47.464;18.976;2023-09-18T00:14:49;7.47;;;5.43;;
65665;SDS011;52365;47.464;18.976;2023-09-18T00:15:06;8.18;;;5.45;;
65665;SDS011;52365;47.464;18.976;2023-09-18T00:15:29;7.07;;;5.35;;
65665;SDS011;52365;47.464;18.976;2023-09-18T00:15:54;6.22;;;5.15;;
65665;SDS011;52365;47.464;18.976;2023-09-18T00:16:16;7.18;;;5.37;;
65665;SDS011;52365;47.464;18.976;2023-09-18T00:16:37;7.60;;;5.30;;
65665;SDS011;52365;47.464;18.976;2023-09-18T00:16:59;6.82;;;5.20;;
65665;SDS011;52365;47.464;18.976;2023-09-18T00:17:20;6.87;;;5.22;;
65665;SDS011;52365;47.464;18.976;2023-09-18T00:17:43;6.72;;;5.20;;
65665;SDS011;52365;47.464;18.976;2023-09-18T00:18:04;7.43;;;5.10;;
65665;SDS011;52365;47.464;18.976;2023-09-18T00:18:25;7.75;;;5.62;;
65665;SDS011;52365;47.464;18.976;2023-09-18T00:18:46;8.77;;;5.68;;
65665;SDS011;52365;47.464;18.976;2023-09-18T00:19:07;6.50;;;5.18;;
65665;SDS011;52365;47.464;18.976;2023-09-18T00:19:29;6.45;;;5.20;;
65665;SDS011;52365;47.464;18.976;2023-09-18T00:19:51;5.87;;;5.05;;
65665;SDS011;52365;47.464;18.976;2023-09-18T00:20:13;7.60;;;5.10;;
65665;SDS011;52365;47.464;18.976;2023-09-18T00:20:34;9.15;;;5.28;;
65665;SDS011;52365;47.464;18.976;2023-09-18T00:20:55;7.97;;;5.37;;
65665;SDS011;52365;47.464;18.976;2023-09-18T00:21:12;8.85;;;5.60;;
65665;SDS011;52365;47.464;18.976;2023-09-18T00:21:33;8.57;;;5.50;;
65665;SDS011;52365;47.464;18.976;2023-09-18T00:21:55;8.05;;;5.25;;
65665;SDS011;52365;47.464;18.976;2023-09-18T00:22:12;8.00;;;5.30;;
65665;SDS011;52365;47.464;18.976;2023-09-18T00:22:33;8.85;;;5.05;;
65665;SDS011;52365;47.464;18.976;2023-09-18T00:22:54;8.05;;;5.18;;
65665;SDS011;52365;47.464;18.976;2023-09-18T00:23:15;6.70;;;5.30;;
65665;SDS011;52365;47.464;18.976;2023-09-18T00:23:37;8.15;;;5.55;;
65665;SDS011;52365;47.464;18.976;2023-09-18T00:23:58;7.57;;;5.57;;
65665;SDS011;52365;47.464;18.976;2023-09-18T00:24:19;7.50;;;5.37;;
65665;SDS011;52365;47.464;18.976;2023-09-18T00:24:40;7.60;;;5.47;;
65665;SDS011;52365;47.464;18.976;2023-09-18T00:25:01;7.97;;;5.47;;
65665;SDS011;52365;47.464;18.976;2023-09-18T00:25:18;6.90;;;5.62;;
65665;SDS011;52365;47.464;18.976;2023-09-18T00:25:39;7.72;;;5.90;;
65665;SDS011;52365;47.464;18.976;2023-09-18T00:26:03;7.70;;;5.43;;
65665;SDS011;52365;47.464;18.976;2023-09-18T00:26:24;7.65;;;5.50;;
65665;SDS011;52365;47.464;18.976;2023-09-18T00:26:46;7.60;;;5.40;;
65665;SDS011;52365;47.464;18.976;2023-09-18T00:27:08;6.90;;;5.40;;
65665;SDS011;52365;47.464;18.976;2023-09-18T00:27:31;6.55;;;5.68;;
65665;SDS011;52365;47.464;18.976;2023-09-18T00:27:53;8.77;;;5.53;;
65665;SDS011;52365;47.464;18.976;2023-09-18T00:28:14;8.00;;;5.43;;
65665;SDS011;52365;47.464;18.976;2023-09-18T00:28:35;9.60;;;5.22;;
65665;SDS011;52365;47.464;18.976;2023-09-18T00:28:56;9.02;;;5.53;;
65665;SDS011;52365;47.464;18.976;2023-09-18T00:29:17;8.13;;;5.70;;
65665;SDS011;52365;47.464;18.976;2023-09-18T00:29:38;7.78;;;5.75;;
65665;SDS011;52365;47.464;18.976;2023-09-18T00:29:59;7.75;;;5.45;;
65665;SDS011;52365;47.464;18.976;2023-09-18T00:30:20;7.70;;;5.55;;
65665;SDS011;52365;47.464;18.976;2023-09-18T00:30:47;7.57;;;5.62;;
65665;SDS011;52365;47.464;18.976;2023-09-18T00:31:10;7.28;;;5.40;;
65665;SDS011;52365;47.464;18.976;2023-09-18T00:31:31;7.72;;;5.30;;
65665;SDS011;52365;47.464;18.976;2023-09-18T00:31:52;8.10;;;5.70;;
65665;SDS011;52365;47.464;18.976;2023-09-18T00:32:13;7.70;;;5.70;;
65665;SDS011;52365;47.464;18.976;2023-09-18T00:32:34;7.05;;;5.47;;
65665;SDS011;52365;47.464;18.976;2023-09-18T00:32:55;7.12;;;5.40;;
65665;SDS011;52365;47.464;18.976;2023-09-18T00:33:16;8.60;;;5.45;;
65665;SDS011;52365;47.464;18.976;2023-09-18T00:33:39;7.72;;;5.53;;
65665;SDS011;52365;47.464;18.976;2023-09-18T00:34:00;6.97;;;5.28;;
65665;SDS011;52365;47.464;18.976;2023-09-18T00:34:21;6.78;;;5.22;;
65665;SDS011;52365;47.464;18.976;2023-09-18T00:34:42;7.82;;;5.55;;
65665;SDS011;52365;47.464;18.976;2023-09-18T00:35:04;7.68;;;5.10;;
65665;SDS011;52365;47.464;18.976;2023-09-18T00:35:25;9.68;;;5.30;;
65665;SDS011;52365;47.464;18.976;2023-09-18T00:35:49;9.18;;;5.47;;
65665;SDS011;52365;47.464;18.976;2023-09-18T00:36:11;7.87;;;5.20;;
65665;SDS011;52365;47.464;18.976;2023-09-18T00:36:32;6.90;;;5.28;;
65665;SDS011;52365;47.464;18.976;2023-09-18T00:36:48;6.80;;;5.37;;
65665;SDS011;52365;47.464;18.976;2023-09-18T00:37:09;6.57;;;5.12;;
65665;SDS011;52365;47.464;18.976;2023-09-18T00:37:32;8.25;;;5.32;;
65665;SDS011;52365;47.464;18.976;2023-09-18T00:37:53;6.90;;;5.12;;
65665;SDS011;52365;47.464;18.976;2023-09-18T00:38:15;6.90;;;5.40;;
65665;SDS011;52365;47.464;18.976;2023-09-18T00:38:36;7.22;;;5.43;;
65665;SDS011;52365;47.464;18.976;2023-09-18T00:38:57;8.68;;;5.57;;
65665;SDS011;52365;47.464;18.976;2023-09-18T00:39:18;8.45;;;5.60;;
65665;SDS011;52365;47.464;18.976;2023-09-18T00:39:39;7.40;;;5.57;;
65665;SDS011;52365;47.464;18.976;2023-09-18T00:40:01;7.43;;;5.22;;
65665;SDS011;52365;47.464;18.976;2023-09-18T00:40:20;7.07;;;5.12;;
65665;SDS011;52365;47.464;18.976;2023-09-18T00:40:41;8.70;;;5.25;;
65665;SDS011;52365;47.464;18.976;2023-09-18T00:41:02;8.73;;;5.50;;
65665;SDS011;52365;47.464;18.976;2023-09-18T00:41:18;7.72;;;5.43;;
65665;SDS011;52365;47.464;18.976;2023-09-18T00:41:39;7.85;;;5.03;;
65665;SDS011;52365;47.464;18.976;2023-09-18T00:42:01;7.35;;;5.20;;
65665;SDS011;52365;47.464;18.976;2023-09-18T00:42:18;7.65;;;5.43;;
65665;SDS011;52365;47.464;18.976;2023-09-18T00:42:39;8.75;;;5.70;;
65665;SDS011;52365;47.464;18.976;2023-09-18T00:43:00;7.70;;;5.50;;
65665;SDS011;52365;47.464;18.976;2023-09-18T00:43:16;6.87;;;5.55;;
65665;SDS011;52365;47.464;18.976;2023-09-18T00:43:38;7.68;;;5.50;;
65665;SDS011;52365;47.464;18.976;2023-09-18T00:43:59;7.57;;;5.82;;
65665;SDS011;52365;47.464;18.976;2023-09-18T00:44:20;7.03;;;5.87;;
65665;SDS011;52365;47.464;18.976;2023-09-18T00:44:42;9.55;;;5.72;;
65665;SDS011;52365;47.464;18.976;2023-09-18T00:45:03;8.13;;;5.50;;
65665;SDS011;52365;47.464;18.976;2023-09-18T00:45:25;8.23;;;5.43;;
65665;SDS011;52365;47.464;18.976;2023-09-18T00:45:47;7.35;;;5.25;;
65665;SDS011;52365;47.464;18.976;2023-09-18T00:46:03;8.30;;;5.45;;
65665;SDS011;52365;47.464;18.976;2023-09-18T00:46:25;9.65;;;5.75;;
65665;SDS011;52365;47.464;18.976;2023-09-18T00:46:47;7.78;;;5.35;;
65665;SDS011;52365;47.464;18.976;2023-09-18T00:47:09;6.97;;;5.20;;
65665;SDS011;52365;47.464;18.976;2023-09-18T00:47:31;6.95;;;5.32;;
65665;SDS011;52365;47.464;18.976;2023-09-18T00:47:52;7.37;;;5.75;;
65665;SDS011;52365;47.464;18.976;2023-09-18T00:48:15;8.13;;;5.70;;
65665;SDS011;52365;47.464;18.976;2023-09-18T00:48:37;7.57;;;5.55;;
65665;SDS011;52365;47.464;18.976;2023-09-18T00:48:58;7.35;;;5.30;;
65665;SDS011;52365;47.464;18.976;2023-09-18T00:49:19;6.93;;;5.25;;
65665;SDS011;52365;47.464;18.976;2023-09-18T00:49:41;9.77;;;5.68;;
65665;SDS011;52365;47.464;18.976;2023-09-18T00:50:06;7.43;;;5.90;;
65665;SDS011;52365;47.464;18.976;2023-09-18T00:50:29;7.53;;;5.35;;
65665;SDS011;52365;47.464;18.976;2023-09-18T00:50:46;7.78;;;5.20;;
65665;SDS011;52365;47.464;18.976;2023-09-18T00:51:09;7.12;;;5.30;;
65665;SDS011;52365;47.464;18.976;2023-09-18T00:51:25;8.63;;;5.50;;
65665;SDS011;52365;47.464;18.976;2023-09-18T00:51:47;8.30;;;5.82;;
65665;SDS011;52365;47.464;18.976;2023-09-18T00:52:08;7.75;;;5.68;;
65665;SDS011;52365;47.464;18.976;2023-09-18T00:52:31;9.75;;;5.80;;
65665;SDS011;52365;47.464;18.976;2023-09-18T00:52:52;8.45;;;5.57;;
65665;SDS011;52365;47.464;18.976;2023-09-18T00:53:15;6.95;;;5.18;;
65665;SDS011;52365;47.464;18.976;2023-09-18T00:53:41;7.20;;;4.93;;
65665;SDS011;52365;47.464;18.976;2023-09-18T00:54:00;9.05;;;5.05;;
65665;SDS011;52365;47.464;18.976;2023-09-18T00:54:22;8.02;;;5.37;;
65665;SDS011;52365;47.464;18.976;2023-09-18T00:54:43;6.90;;;5.43;;
65665;SDS011;52365;47.464;18.976;2023-09-18T00:55:05;7.30;;;5.40;;
65665;SDS011;52365;47.464;18.976;2023-09-18T00:55:27;8.18;;;5.53;;
65665;SDS011;52365;47.464;18.976;2023-09-18T00:55:52;7.30;;;5.57;;
65665;SDS011;52365;47.464;18.976;2023-09-18T00:56:15;7.00;;;5.40;;
65665;SDS011;52365;47.464;18.976;2023-09-18T00:56:38;7.40;;;5.60;;
65665;SDS011;52365;47.464;18.976;2023-09-18T00:56:59;7.37;;;5.32;;
65665;SDS011;52365;47.464;18.976;2023-09-18T00:57:20;6.75;;;5.35;;
65665;SDS011;52365;47.464;18.976;2023-09-18T00:57:41;7.78;;;5.12;;
65665;SDS011;52365;47.464;18.976;2023-09-18T00:57:59;7.60;;;5.18;;
65665;SDS011;52365;47.464;18.976;2023-09-18T00:58:20;7.18;;;5.37;;
65665;SDS011;52365;47.464;18.976;2023-09-18T00:58:42;7.60;;;5.03;;
65665;SDS011;52365;47.464;18.976;2023-09-18T00:59:04;9.32;;;5.70;;
65665;SDS011;52365;47.464;18.976;2023-09-18T00:59:25;8.02;;;5.45;;
65665;SDS011;52365;47.464;18.976;2023-09-18T00:59:46;7.75;;;5.43;;
65665;SDS011;52365;47.464;18.976;2023-09-18T01:00:03;6.75;;;5.45;;
65665;SDS011;52365;47.464;18.976;2023-09-18T01:00:28;5.93;;;5.07;;
65665;SDS011;52365;47.464;18.976;2023-09-18T01:00:50;6.32;;;5.03;;
65665;SDS011;52365;47.464;18.976;2023-09-18T01:01:12;7.32;;;5.47;;
65665;SDS011;52365;47.464;18.976;2023-09-18T01:01:36;6.97;;;5.50;;
65665;SDS011;52365;47.464;18.976;2023-09-18T01:01:59;7.32;;;5.50;;
65665;SDS011;52365;47.464;18.976;2023-09-18T01:02:20;6.57;;;5.20;;
65665;SDS011;52365;47.464;18.976;2023-09-18T01:02:42;8.18;;;5.60;;
65665;SDS011;52365;47.464;18.976;2023-09-18T01:03:03;7.82;;;5.43;;
65665;SDS011;52365;47.464;18.976;2023-09-18T01:03:20;6.65;;;5.30;;
65665;SDS011;52365;47.464;18.976;2023-09-18T01:03:43;7.55;;;5.60;;
65665;SDS011;52365;47.464;18.976;2023-09-18T01:04:04;7.25;;;5.22;;
65665;SDS011;52365;47.464;18.976;2023-09-18T01:04:25;6.82;;;5.30;;
65665;SDS011;52365;47.464;18.976;2023-09-18T01:04:44;6.10;;;5.30;;
65665;SDS011;52365;47.464;18.976;2023-09-18T01:05:00;5.87;;;5.03;;
65665;SDS011;52365;47.464;18.976;2023-09-18T01:05:21;8.00;;;5.53;;
65665;SDS011;52365;47.464;18.976;2023-09-18T01:05:42;8.05;;;5.37;;
65665;SDS011;52365;47.464;18.976;2023-09-18T01:06:03;7.72;;;5.32;;
65665;SDS011;52365;47.464;18.976;2023-09-18T01:06:24;6.25;;;5.12;;
65665;SDS011;52365;47.464;18.976;2023-09-18T01:06:48;6.70;;;5.60;;
65665;SDS011;52365;47.464;18.976;2023-09-18T01:07:10;7.45;;;5.37;;
65665;SDS011;52365;47.464;18.976;2023-09-18T01:07:31;7.25;;;5.22;;
65665;SDS011;52365;47.464;18.976;2023-09-18T01:07:52;8.00;;;5.47;;
65665;SDS011;52365;47.464;18.976;2023-09-18T01:08:08;8.32;;;5.20;;
65665;SDS011;52365;47.464;18.976;2023-09-18T01:08:29;7.53;;;5.20;;
65665;SDS011;52365;47.464;18.976;2023-09-18T01:08:51;9.20;;;5.43;;
65665;SDS011;52365;47.464;18.976;2023-09-18T01:09:14;8.30;;;5.37;;
65665;SDS011;52365;47.464;18.976;2023-09-18T01:09:39;6.07;;;5.32;;
65665;SDS011;52365;47.464;18.976;2023-09-18T01:10:00;7.22;;;5.65;;
65665;SDS011;52365;47.464;18.976;2023-09-18T01:10:16;7.70;;;5.32;;
65665;SDS011;52365;47.464;18.976;2023-09-18T01:10:40;7.75;;;5.28;;
65665;SDS011;52365;47.464;18.976;2023-09-18T01:13:13;10.75;;;5.90;;
65665;SDS011;52365;47.464;18.976;2023-09-18T01:13:51;9.50;;;5.72;;
65665;SDS011;52365;47.464;18.976;2023-09-18T01:14:19;6.82;;;5.30;;
65665;SDS011;52365;47.464;18.976;2023-09-18T01:15:02;8.50;;;5.78;;
65665;SDS011;52365;47.464;18.976;2023-09-18T01:15:32;6.65;;;5.55;;
65665;SDS011;52365;47.464;18.976;2023-09-18T01:16:02;8.30;;;5.75;;
65665;SDS011;52365;47.464;18.976;2023-09-18T01:16:37;7.57;;;5.50;;
65665;SDS011;52365;47.464;18.976;2023-09-18T01:17:01;6.40;;;5.25;;
65665;SDS011;52365;47.464;18.976;2023-09-18T01:17:25;9.33;;;5.80;;
65665;SDS011;52365;47.464;18.976;2023-09-18T01:17:47;7.65;;;5.22;;
65665;SDS011;52365;47.464;18.976;2023-09-18T01:18:09;9.00;;;5.62;;
65665;SDS011;52365;47.464;18.976;2023-09-18T01:18:30;8.38;;;5.60;;
65665;SDS011;52365;47.464;18.976;2023-09-18T01:18:51;8.40;;;5.78;;
65665;SDS011;52365;47.464;18.976;2023-09-18T01:19:12;9.48;;;6.07;;
65665;SDS011;52365;47.464;18.976;2023-09-18T01:19:40;9.40;;;6.22;;
65665;SDS011;52365;47.464;18.976;2023-09-18T01:20:02;10.40;;;5.95;;
65665;SDS011;52365;47.464;18.976;2023-09-18T01:20:26;8.65;;;5.50;;
65665;SDS011;52365;47.464;18.976;2023-09-18T01:20:48;7.82;;;5.62;;
65665;SDS011;52365;47.464;18.976;2023-09-18T01:21:09;9.30;;;6.15;;
65665;SDS011;52365;47.464;18.976;2023-09-18T01:21:30;8.15;;;6.00;;
65665;SDS011;52365;47.464;18.976;2023-09-18T01:21:46;7.07;;;5.75;;
65665;SDS011;52365;47.464;18.976;2023-09-18T01:22:07;7.70;;;5.90;;
65665;SDS011;52365;47.464;18.976;2023-09-18T01:22:30;8.05;;;5.80;;
65665;SDS011;52365;47.464;18.976;2023-09-18T01:22:51;7.20;;;5.80;;
65665;SDS011;52365;47.464;18.976;2023-09-18T01:23:12;7.85;;;5.72;;
65665;SDS011;52365;47.464;18.976;2023-09-18T01:23:33;7.78;;;6.12;;
65665;SDS011;52365;47.464;18.976;2023-09-18T01:23:54;8.25;;;5.97;;
65665;SDS011;52365;47.464;18.976;2023-09-18T01:24:15;8.48;;;5.97;;
65665;SDS011;52365;47.464;18.976;2023-09-18T01:24:36;8.68;;;6.03;;
65665;SDS011;52365;47.464;18.976;2023-09-18T01:24:58;9.77;;;5.80;;
65665;SDS011;52365;47.464;18.976;2023-09-18T01:25:19;8.13;;;5.72;;
65665;SDS011;52365;47.464;18.976;2023-09-18T01:25:41;9.65;;;6.00;;
65665;SDS011;52365;47.464;18.976;2023-09-18T01:26:02;8.55;;;6.20;;
65665;SDS011;52365;47.464;18.976;2023-09-18T01:26:23;8.00;;;5.87;;
65665;SDS011;52365;47.464;18.976;2023-09-18T01:26:44;8.40;;;6.03;;
65665;SDS011;52365;47.464;18.976;2023-09-18T01:27:07;8.05;;;6.18;;
65665;SDS011;52365;47.464;18.976;2023-09-18T01:27:33;7.80;;;6.22;;
65665;SDS011;52365;47.464;18.976;2023-09-18T01:27:54;8.73;;;5.85;;
65665;SDS011;52365;47.464;18.976;2023-09-18T01:28:15;8.13;;;6.18;;
65665;SDS011;52365;47.464;18.976;2023-09-18T01:28:37;8.70;;;5.82;;
65665;SDS011;52365;47.464;18.976;2023-09-18T01:28:58;7.82;;;5.53;;
65665;SDS011;52365;47.464;18.976;2023-09-18T01:29:19;8.43;;;6.10;;
65665;SDS011;52365;47.464;18.976;2023-09-18T01:29:40;8.52;;;6.15;;
65665;SDS011;52365;47.464;18.976;2023-09-18T01:29:56;7.87;;;5.95;;
65665;SDS011;52365;47.464;18.976;2023-09-18T01:30:17;8.02;;;5.90;;
65665;SDS011;52365;47.464;18.976;2023-09-18T01:30:39;8.98;;;6.03;;
65665;SDS011;52365;47.464;18.976;2023-09-18T01:31:00;8.77;;;5.72;;
65665;SDS011;52365;47.464;18.976;2023-09-18T01:31:21;8.85;;;5.75;;
65665;SDS011;52365;47.464;18.976;2023-09-18T01:31:42;10.23;;;5.95;;
65665;SDS011;52365;47.464;18.976;2023-09-18T01:32:04;8.30;;;6.03;;
65665;SDS011;52365;47.464;18.976;2023-09-18T01:32:26;8.07;;;5.62;;
65665;SDS011;52365;47.464;18.976;2023-09-18T01:32:45;9.48;;;5.90;;
65665;SDS011;52365;47.464;18.976;2023-09-18T01:33:07;7.80;;;5.87;;
65665;SDS011;52365;47.464;18.976;2023-09-18T01:33:29;7.45;;;6.10;;
65665;SDS011;52365;47.464;18.976;2023-09-18T01:33:51;8.80;;;5.85;;
65665;SDS011;52365;47.464;18.976;2023-09-18T01:34:09;9.25;;;5.85;;
65665;SDS011;52365;47.464;18.976;2023-09-18T01:34:28;8.60;;;5.90;;
65665;SDS011;52365;47.464;18.976;2023-09-18T01:34:54;8.10;;;5.97;;
65665;SDS011;52365;47.464;18.976;2023-09-18T01:35:17;7.93;;;6.07;;
65665;SDS011;52365;47.464;18.976;2023-09-18T01:35:38;8.95;;;6.03;;
65665;SDS011;52365;47.464;18.976;2023-09-18T01:36:01;7.78;;;5.85;;
65665;SDS011;52365;47.464;18.976;2023-09-18T01:36:23;7.30;;;5.82;;
65665;SDS011;52365;47.464;18.976;2023-09-18T01:36:45;9.52;;;5.85;;
65665;SDS011;52365;47.464;18.976;2023-09-18T01:37:07;9.02;;;5.90;;
65665;SDS011;52365;47.464;18.976;2023-09-18T01:37:30;9.48;;;6.20;;
65665;SDS011;52365;47.464;18.976;2023-09-18T01:37:52;8.88;;;6.30;;
65665;SDS011;52365;47.464;18.976;2023-09-18T01:38:14;8.07;;;6.20;;
65665;SDS011;52365;47.464;18.976;2023-09-18T01:38:35;10.27;;;5.93;;
65665;SDS011;52365;47.464;18.976;2023-09-18T01:38:57;7.62;;;5.85;;
65665;SDS011;52365;47.464;18.976;2023-09-18T01:39:19;7.93;;;6.10;;
65665;SDS011;52365;47.464;18.976;2023-09-18T01:39:41;10.15;;;5.82;;
65665;SDS011;52365;47.464;18.976;2023-09-18T01:40:03;8.60;;;5.80;;
65665;SDS011;52365;47.464;18.976;2023-09-18T01:40:27;6.95;;;5.78;;
65665;SDS011;52365;47.464;18.976;2023-09-18T01:40:49;8.52;;;6.05;;
65665;SDS011;52365;47.464;18.976;2023-09-18T01:41:11;9.85;;;6.30;;
65665;SDS011;52365;47.464;18.976;2023-09-18T01:41:32;8.65;;;6.05;;
65665;SDS011;52365;47.464;18.976;2023-09-18T01:41:54;11.12;;;6.50;;
65665;SDS011;52365;47.464;18.976;2023-09-18T01:42:15;9.40;;;6.45;;
65665;SDS011;52365;47.464;18.976;2023-09-18T01:42:37;8.10;;;6.35;;
65665;SDS011;52365;47.464;18.976;2023-09-18T01:42:58;9.35;;;6.10;;
65665;SDS011;52365;47.464;18.976;2023-09-18T01:43:19;8.95;;;5.75;;
65665;SDS011;52365;47.464;18.976;2023-09-18T01:43:41;8.68;;;5.93;;
65665;SDS011;52365;47.464;18.976;2023-09-18T01:44:02;7.95;;;6.20;;
65665;SDS011;52365;47.464;18.976;2023-09-18T01:44:25;7.80;;;6.03;;
65665;SDS011;52365;47.464;18.976;2023-09-18T01:44:41;7.40;;;5.82;;
65665;SDS011;52365;47.464;18.976;2023-09-18T01:45:02;7.80;;;5.93;;
65665;SDS011;52365;47.464;18.976;2023-09-18T01:45:25;10.20;;;5.72;;
65665;SDS011;52365;47.464;18.976;2023-09-18T01:45:46;9.68;;;5.97;;
65665;SDS011;52365;47.464;18.976;2023-09-18T01:46:03;8.05;;;5.90;;
65665;SDS011;52365;47.464;18.976;2023-09-18T01:46:25;7.68;;;5.60;;
65665;SDS011;52365;47.464;18.976;2023-09-18T01:46:47;8.82;;;6.10;;
65665;SDS011;52365;47.464;18.976;2023-09-18T01:47:08;9.88;;;6.03;;
65665;SDS011;52365;47.464;18.976;2023-09-18T01:47:33;9.20;;;5.87;;
65665;SDS011;52365;47.464;18.976;2023-09-18T01:47:55;8.80;;;6.15;;
65665;SDS011;52365;47.464;18.976;2023-09-18T01:48:16;8.40;;;5.62;;
65665;SDS011;52365;47.464;18.976;2023-09-18T01:48:37;7.10;;;5.55;;
65665;SDS011;52365;47.464;18.976;2023-09-18T01:48:58;8.15;;;6.07;;
65665;SDS011;52365;47.464;18.976;2023-09-18T01:49:26;8.57;;;6.35;;
65665;SDS011;52365;47.464;18.976;2023-09-18T01:49:52;7.10;;;5.85;;
65665;SDS011;52365;47.464;18.976;2023-09-18T01:50:09;7.25;;;5.85;;
65665;SDS011;52365;47.464;18.976;2023-09-18T01:50:30;7.80;;;5.80;;
65665;SDS011;52365;47.464;18.976;2023-09-18T01:50:51;7.95;;;5.90;;
65665;SDS011;52365;47.464;18.976;2023-09-18T01:51:15;8.68;;;6.20;;
65665;SDS011;52365;47.464;18.976;2023-09-18T01:51:31;8.50;;;5.95;;
65665;SDS011;52365;47.464;18.976;2023-09-18T01:51:53;7.80;;;5.50;;
65665;SDS011;52365;47.464;18.976;2023-09-18T01:52:14;7.65;;;5.60;;
65665;SDS011;52365;47.464;18.976;2023-09-18T01:52:30;8.77;;;5.68;;
65665;SDS011;52365;47.464;18.976;2023-09-18T01:52:46;9.15;;;5.90;;
65665;SDS011;52365;47.464;18.976;2023-09-18T01:53:07;9.60;;;6.00;;
65665;SDS011;52365;47.464;18.976;2023-09-18T01:53:28;7.60;;;5.90;;
65665;SDS011;52365;47.464;18.976;2023-09-18T01:53:50;6.75;;;5.75;;
65665;SDS011;52365;47.464;18.976;2023-09-18T01:54:11;8.30;;;5.80;;
65665;SDS011;52365;47.464;18.976;2023-09-18T01:54:32;8.27;;;6.00;;
65665;SDS011;52365;47.464;18.976;2023-09-18T01:54:54;7.40;;;5.97;;
65665;SDS011;52365;47.464;18.976;2023-09-18T01:55:15;8.10;;;6.12;;
65665;SDS011;52365;47.464;18.976;2023-09-18T01:55:36;7.70;;;5.65;;
65665;SDS011;52365;47.464;18.976;2023-09-18T01:55:57;8.27;;;5.70;;
65665;SDS011;52365;47.464;18.976;2023-09-18T01:56:18;9.07;;;5.78;;
65665;SDS011;52365;47.464;18.976;2023-09-18T01:56:40;8.45;;;5.75;;
65665;SDS011;52365;47.464;18.976;2023-09-18T01:57:01;8.75;;;5.87;;
65665;SDS011;52365;47.464;18.976;2023-09-18T01:57:18;8.90;;;5.80;;
65665;SDS011;52365;47.464;18.976;2023-09-18T01:57:39;8.20;;;5.70;;
65665;SDS011;52365;47.464;18.976;2023-09-18T01:58:00;7.32;;;5.80;;
65665;SDS011;52365;47.464;18.976;2023-09-18T01:58:21;7.65;;;6.00;;
65665;SDS011;52365;47.464;18.976;2023-09-18T01:58:42;8.48;;;6.10;;
65665;SDS011;52365;47.464;18.976;2023-09-18T01:59:03;9.32;;;6.20;;
65665;SDS011;52365;47.464;18.976;2023-09-18T01:59:24;8.18;;;6.07;;
65665;SDS011;52365;47.464;18.976;2023-09-18T01:59:45;9.80;;;6.35;;
65665;SDS011;52365;47.464;18.976;2023-09-18T02:00:07;9.63;;;6.45;;
65665;SDS011;52365;47.464;18.976;2023-09-18T02:00:29;8.90;;;6.40;;
65665;SDS011;52365;47.464;18.976;2023-09-18T02:00:50;7.87;;;6.20;;
65665;SDS011;52365;47.464;18.976;2023-09-18T02:01:11;7.37;;;5.90;;
65665;SDS011;52365;47.464;18.976;2023-09-18T02:01:32;7.68;;;6.10;;
65665;SDS011;52365;47.464;18.976;2023-09-18T02:01:49;7.93;;;6.20;;
65665;SDS011;52365;47.464;18.976;2023-09-18T02:02:06;9.05;;;6.25;;
65665;SDS011;52365;47.464;18.976;2023-09-18T02:02:29;7.90;;;6.10;;
65665;SDS011;52365;47.464;18.976;2023-09-18T02:02:50;7.28;;;5.93;;
65665;SDS011;52365;47.464;18.976;2023-09-18T02:03:11;7.87;;;6.05;;
65665;SDS011;52365;47.464;18.976;2023-09-18T02:03:27;9.32;;;6.40;;
65665;SDS011;52365;47.464;18.976;2023-09-18T02:03:48;7.95;;;6.07;;
65665;SDS011;52365;47.464;18.976;2023-09-18T02:04:09;7.37;;;6.10;;
65665;SDS011;52365;47.464;18.976;2023-09-18T02:04:30;7.60;;;6.00;;
65665;SDS011;52365;47.464;18.976;2023-09-18T02:04:51;7.00;;;5.87;;
65665;SDS011;52365;47.464;18.976;2023-09-18T02:05:07;7.25;;;5.80;;
65665;SDS011;52365;47.464;18.976;2023-09-18T02:05:28;7.93;;;5.87;;
65665;SDS011;52365;47.464;18.976;2023-09-18T02:05:49;8.85;;;6.50;;
65665;SDS011;52365;47.464;18.976;2023-09-18T02:06:10;8.63;;;6.37;;
65665;SDS011;52365;47.464;18.976;2023-09-18T02:06:31;8.95;;;6.68;;
65665;SDS011;52365;47.464;18.976;2023-09-18T02:06:52;9.13;;;6.25;;
65665;SDS011;52365;47.464;18.976;2023-09-18T02:07:13;9.75;;;6.18;;
65665;SDS011;52365;47.464;18.976;2023-09-18T02:07:34;10.45;;;6.28;;
65665;SDS011;52365;47.464;18.976;2023-09-18T02:07:56;9.40;;;6.12;;
65665;SDS011;52365;47.464;18.976;2023-09-18T02:08:17;9.18;;;5.97;;
65665;SDS011;52365;47.464;18.976;2023-09-18T02:08:38;8.02;;;6.10;;
65665;SDS011;52365;47.464;18.976;2023-09-18T02:08:59;8.38;;;6.35;;